createdAt,value
2023-05-14T00:01:00.618Z,53.44
2023-05-14T00:03:29.412Z,53.14
2023-05-14T00:05:56.774Z,53.77
2023-05-14T00:08:23.923Z,53.85
2023-05-14T00:10:51.275Z,54.09
2023-05-14T00:13:18.432Z,54.50
2023-05-14T00:18:44.331Z,54.31
2023-05-14T00:21:11.935Z,54.34
2023-05-14T00:23:41.630Z,54.85
2023-05-14T00:26:08.799Z,56.63
2023-05-14T00:28:35.953Z,58.23
2023-05-14T00:31:03.146Z,59.10
2023-05-14T00:33:31.074Z,59.29
2023-05-14T00:35:58.223Z,59.38
2023-05-14T00:38:28.037Z,59.30
2023-05-14T00:40:55.396Z,59.51
2023-05-14T00:43:23.066Z,59.81
2023-05-14T00:45:51.358Z,60.15
2023-05-14T00:48:19.424Z,59.98
2023-05-14T00:50:47.184Z,60.13
2023-05-14T00:53:14.327Z,60.67
2023-05-14T00:55:42.141Z,60.93
2023-05-14T00:58:10.797Z,61.07
2023-05-14T01:00:38.605Z,60.97
2023-05-14T01:03:07.994Z,60.49
2023-05-14T01:05:50.666Z,59.38
2023-05-14T01:08:40.869Z,57.70
2023-05-14T01:11:29.014Z,55.69
2023-05-14T01:14:08.444Z,55.08
2023-05-14T01:16:35.850Z,54.86
2023-05-14T01:19:03.225Z,54.25
2023-05-14T01:21:36.967Z,54.08
2023-05-14T01:24:04.754Z,53.73
2023-05-14T01:26:31.984Z,53.80
2023-05-14T01:29:22.704Z,53.80
2023-05-14T01:31:50.993Z,53.69
2023-05-14T01:34:21.408Z,53.61
2023-05-14T01:36:48.550Z,54.26
2023-05-14T01:39:15.807Z,54.89
2023-05-14T01:41:42.958Z,54.96
2023-05-14T01:44:10.205Z,54.53
2023-05-14T01:46:38.243Z,54.48
2023-05-14T01:49:05.734Z,54.55
2023-05-14T01:51:32.887Z,53.96
2023-05-14T01:54:00.969Z,54.03
2023-05-14T01:56:28.113Z,54.84
2023-05-14T01:58:57.114Z,55.58
2023-05-14T02:01:26.396Z,55.82
2023-05-14T02:03:53.612Z,55.73
2023-05-14T02:06:22.135Z,56.02
2023-05-14T02:08:49.302Z,56.40
2023-05-14T02:11:17.071Z,56.43
2023-05-14T02:13:44.321Z,56.63
2023-05-14T02:16:11.523Z,56.67
2023-05-14T02:18:38.741Z,56.79
2023-05-14T02:21:06.189Z,56.90
2023-05-14T02:23:41.146Z,57.33
2023-05-14T02:26:12.816Z,58.01
2023-05-14T02:28:41.470Z,59.59
2023-05-14T02:31:08.652Z,60.44
2023-05-14T02:33:36.022Z,60.95
2023-05-14T02:36:03.333Z,60.90
2023-05-14T02:38:30.484Z,60.96
2023-05-14T02:40:57.736Z,60.73
2023-05-14T02:43:24.896Z,59.74
2023-05-14T02:45:52.586Z,58.96
2023-05-14T02:48:19.813Z,57.82
2023-05-14T02:50:47.273Z,57.11
2023-05-14T02:53:14.734Z,56.64
2023-05-14T02:55:41.885Z,56.29
2023-05-14T02:58:09.035Z,56.35
2023-05-14T03:00:36.213Z,56.24
2023-05-14T03:03:04.334Z,56.01
2023-05-14T03:05:32.178Z,56.04
2023-05-14T03:07:59.379Z,55.99
2023-05-14T03:10:26.640Z,55.55
2023-05-14T03:12:53.999Z,55.31
2023-05-14T03:15:21.350Z,55.08
2023-05-14T03:17:49.637Z,55.23
2023-05-14T03:20:16.984Z,55.44
2023-05-14T03:22:44.134Z,55.40
2023-05-14T03:25:11.302Z,55.56
2023-05-14T03:27:38.440Z,55.66
2023-05-14T03:30:06.567Z,55.71
2023-05-14T03:32:33.892Z,55.82
2023-05-14T03:35:01.051Z,55.92
2023-05-14T03:37:28.162Z,55.54
2023-05-14T03:39:55.322Z,55.23
2023-05-14T03:42:22.477Z,55.26
2023-05-14T03:44:49.630Z,55.41
2023-05-14T03:47:17.200Z,55.37
2023-05-14T03:49:44.449Z,55.45
2023-05-14T03:52:12.416Z,55.57
2023-05-14T03:54:41.519Z,55.77
2023-05-14T03:57:08.663Z,55.71
2023-05-14T03:59:35.819Z,55.67
2023-05-14T04:02:03.070Z,56.09
2023-05-14T04:04:30.230Z,55.99
2023-05-14T04:06:57.476Z,55.84
2023-05-14T04:09:24.631Z,55.46
2023-05-14T04:11:51.790Z,55.11
2023-05-14T04:14:18.934Z,55.27
2023-05-14T04:16:46.515Z,54.65
2023-05-14T04:19:14.211Z,54.68
2023-05-14T04:21:42.329Z,53.92
2023-05-14T04:24:10.918Z,53.45
2023-05-14T04:26:38.065Z,53.24
2023-05-14T04:29:05.223Z,53.94
2023-05-14T04:31:32.712Z,54.32
2023-05-14T04:34:00.024Z,54.31
2023-05-14T04:36:27.584Z,54.39
2023-05-14T04:38:54.631Z,54.86
2023-05-14T04:41:21.783Z,55.00
2023-05-14T04:43:49.959Z,55.45
2023-05-14T04:46:17.151Z,55.59
2023-05-14T04:48:44.370Z,54.95
2023-05-14T04:51:11.527Z,55.23
2023-05-14T04:53:38.773Z,55.58
2023-05-14T04:56:06.751Z,55.58
2023-05-14T04:58:35.118Z,55.28
2023-05-14T05:01:05.309Z,55.59
2023-05-14T05:03:32.769Z,55.05
2023-05-14T05:05:59.969Z,54.74
2023-05-14T05:08:27.135Z,54.97
2023-05-14T05:10:54.285Z,54.60
2023-05-14T05:13:21.528Z,54.39
2023-05-14T05:15:48.699Z,54.41
2023-05-14T05:18:15.928Z,54.82
2023-05-14T05:20:43.078Z,55.00
2023-05-14T05:23:10.233Z,54.38
2023-05-14T05:25:37.406Z,53.43
2023-05-14T05:28:04.656Z,52.79
2023-05-14T05:30:31.795Z,53.94
2023-05-14T05:32:58.996Z,54.22
2023-05-14T05:35:26.196Z,54.05
2023-05-14T05:37:53.354Z,53.93
2023-05-14T05:40:20.731Z,53.23
2023-05-14T05:42:47.874Z,52.51
2023-05-14T05:45:15.114Z,52.58
2023-05-14T05:47:42.267Z,53.07
2023-05-14T05:50:10.441Z,53.53
2023-05-14T05:52:37.559Z,53.51
2023-05-14T05:55:05.276Z,52.45
2023-05-14T05:57:32.407Z,52.32
2023-05-14T05:59:59.556Z,51.50
2023-05-14T06:02:26.893Z,51.89
2023-05-14T06:04:54.410Z,52.17
2023-05-14T06:07:21.637Z,52.22
2023-05-14T06:09:48.789Z,51.41
2023-05-14T06:12:16.448Z,50.90
2023-05-14T06:14:43.599Z,50.88
2023-05-14T06:17:10.753Z,50.70
2023-05-14T06:19:37.906Z,49.99
2023-05-14T06:22:05.690Z,49.64
2023-05-14T06:24:33.332Z,49.25
2023-05-14T06:27:00.491Z,48.82
2023-05-14T06:29:27.636Z,47.46
2023-05-14T06:31:54.821Z,47.57
2023-05-14T06:34:22.045Z,47.99
2023-05-14T06:36:49.403Z,48.00
2023-05-14T06:39:16.446Z,47.95
2023-05-14T06:41:43.603Z,47.79
2023-05-14T06:44:14.545Z,47.44
2023-05-14T06:46:41.705Z,46.92
2023-05-14T06:49:08.938Z,45.77
2023-05-14T06:51:36.110Z,44.07
2023-05-14T06:54:03.258Z,43.91
2023-05-14T06:56:31.111Z,42.70
2023-05-14T06:58:58.276Z,42.33
2023-05-14T07:01:25.483Z,42.17
2023-05-14T07:03:52.834Z,41.76
2023-05-14T07:06:20.034Z,41.64
2023-05-14T07:08:47.189Z,41.17
2023-05-14T07:11:14.453Z,41.22
2023-05-14T07:13:42.148Z,41.17
2023-05-14T07:16:12.552Z,41.13
2023-05-14T07:18:40.548Z,40.05
2023-05-14T07:21:07.768Z,40.78
2023-05-14T07:23:36.859Z,40.08
2023-05-14T07:26:04.944Z,40.30
2023-05-14T07:28:32.187Z,39.75
2023-05-14T07:30:59.913Z,38.81
2023-05-14T07:33:27.415Z,38.62
2023-05-14T07:35:54.569Z,38.39
2023-05-14T07:38:21.670Z,37.93
2023-05-14T07:40:48.768Z,37.72
2023-05-14T07:43:15.917Z,38.01
2023-05-14T07:45:43.174Z,36.16
2023-05-14T07:48:10.395Z,34.81
2023-05-14T07:50:37.783Z,34.98
2023-05-14T07:53:04.945Z,35.30
2023-05-14T07:55:32.086Z,34.70
2023-05-14T07:57:59.340Z,33.93
2023-05-14T08:00:26.818Z,33.05
2023-05-14T08:02:55.682Z,32.64
2023-05-14T08:05:22.946Z,32.64
2023-05-14T08:07:50.101Z,31.13
2023-05-14T08:10:17.252Z,30.19
2023-05-14T08:12:44.504Z,30.49
2023-05-14T08:15:12.603Z,30.81
2023-05-14T08:17:39.818Z,29.52
2023-05-14T08:20:08.142Z,30.09
2023-05-14T08:22:35.267Z,29.90
2023-05-14T08:25:04.166Z,29.89
2023-05-14T08:27:31.315Z,28.96
2023-05-14T08:29:58.467Z,28.64
2023-05-14T08:32:25.828Z,28.22
2023-05-14T08:34:53.015Z,28.26
2023-05-14T08:37:20.534Z,28.10
2023-05-14T08:39:47.685Z,28.77
2023-05-14T08:42:14.839Z,28.69
2023-05-14T08:44:52.498Z,27.68
2023-05-14T08:47:21.801Z,27.63
2023-05-14T08:49:53.306Z,28.06
2023-05-14T08:52:20.439Z,27.46
2023-05-14T08:54:47.693Z,26.94
2023-05-14T08:57:14.945Z,26.39
2023-05-14T08:59:42.099Z,26.18
2023-05-14T09:02:09.604Z,26.25
2023-05-14T09:04:37.325Z,26.56
2023-05-14T09:07:04.985Z,26.00
2023-05-14T09:09:32.045Z,25.70
2023-05-14T09:11:59.499Z,26.00
2023-05-14T09:14:27.062Z,26.36
2023-05-14T09:16:55.125Z,26.53
2023-05-14T09:19:22.284Z,26.66
2023-05-14T09:21:49.841Z,26.68
2023-05-14T09:24:21.513Z,26.48
2023-05-14T09:26:53.264Z,26.15
2023-05-14T09:29:20.517Z,25.49
2023-05-14T09:31:48.372Z,25.87
2023-05-14T09:34:30.742Z,25.26
2023-05-14T09:36:59.071Z,25.23
2023-05-14T09:39:26.793Z,25.01
2023-05-14T09:41:54.527Z,24.39
2023-05-14T09:44:22.061Z,24.95
2023-05-14T09:46:49.240Z,24.86
2023-05-14T09:49:16.564Z,24.83
2023-05-14T09:51:43.720Z,24.28
2023-05-14T09:54:11.078Z,24.10
2023-05-14T09:56:39.707Z,24.84
2023-05-14T09:59:06.915Z,24.02
2023-05-14T10:01:34.094Z,23.56
2023-05-14T10:04:02.577Z,24.11
2023-05-14T10:06:32.976Z,24.43
2023-05-14T10:09:01.772Z,24.51
2023-05-14T10:11:34.105Z,23.84
2023-05-14T10:14:08.155Z,24.03
2023-05-14T10:16:38.405Z,24.56
2023-05-14T10:19:15.817Z,24.94
2023-05-14T10:21:45.491Z,24.71
2023-05-14T10:24:13.164Z,24.96
2023-05-14T10:26:42.061Z,26.06
2023-05-14T10:29:12.872Z,27.18
2023-05-14T10:31:56.090Z,27.77
2023-05-14T10:34:38.016Z,28.45
2023-05-14T10:37:06.869Z,28.56
2023-05-14T10:39:59.754Z,28.81
2023-05-14T10:42:41.862Z,28.77
2023-05-14T10:45:10.666Z,28.34
2023-05-14T10:47:43.293Z,28.70
2023-05-14T10:50:11.945Z,29.19
2023-05-14T10:52:41.817Z,28.79
2023-05-14T10:55:10.372Z,28.77
2023-05-14T10:57:39.125Z,29.52
2023-05-14T11:00:10.950Z,27.94
2023-05-14T11:02:39.417Z,27.42
2023-05-14T11:05:09.352Z,26.72
2023-05-14T11:07:37.966Z,26.01
2023-05-14T11:10:09.505Z,26.05
2023-05-14T11:12:41.216Z,26.23
2023-05-14T11:15:09.968Z,26.87
2023-05-14T11:17:37.899Z,27.24
2023-05-14T11:20:06.710Z,27.03
2023-05-14T11:22:34.879Z,26.08
2023-05-14T11:25:02.133Z,26.08
2023-05-14T11:27:31.144Z,25.99
2023-05-14T11:29:58.483Z,25.88
2023-05-14T11:32:27.387Z,26.14
2023-05-14T11:34:54.430Z,26.30
2023-05-14T11:37:21.678Z,25.85
2023-05-14T11:39:49.462Z,25.18
2023-05-14T11:42:18.951Z,25.04
2023-05-14T11:44:47.639Z,24.90
2023-05-14T11:47:14.892Z,24.18
2023-05-14T11:49:42.247Z,23.92
2023-05-14T11:52:14.438Z,23.92
2023-05-14T11:54:44.855Z,23.03
2023-05-14T11:57:13.340Z,21.93
2023-05-14T11:59:40.572Z,21.43
2023-05-14T12:02:15.353Z,20.81
2023-05-14T12:04:42.998Z,19.80
2023-05-14T12:07:12.093Z,19.14
2023-05-14T12:09:50.051Z,18.82
2023-05-14T12:12:21.827Z,18.61
2023-05-14T12:14:49.927Z,18.14
2023-05-14T12:17:21.158Z,18.11
2023-05-14T12:19:49.782Z,18.48
2023-05-14T12:22:19.063Z,18.35
2023-05-14T12:24:56.893Z,18.10
2023-05-14T12:27:24.840Z,17.89
2023-05-14T12:32:36.146Z,17.54
2023-05-14T12:38:41.482Z,16.74
2023-05-14T12:41:08.520Z,17.05
2023-05-14T12:43:35.675Z,17.83
2023-05-14T12:46:02.823Z,17.70
2023-05-14T12:48:30.284Z,17.94
2023-05-14T12:50:57.538Z,18.35
2023-05-14T12:53:24.728Z,18.15
2023-05-14T12:55:51.945Z,16.99
2023-05-14T12:58:19.089Z,16.74
2023-05-14T13:00:46.355Z,16.77
2023-05-14T13:03:13.491Z,17.07
2023-05-14T13:05:40.957Z,18.10
2023-05-14T13:08:08.105Z,17.88
2023-05-14T13:10:35.257Z,18.90
2023-05-14T13:13:02.835Z,19.04
2023-05-14T13:15:31.918Z,18.90
2023-05-14T13:17:59.104Z,18.29
2023-05-14T13:20:27.764Z,18.81
2023-05-14T13:22:54.909Z,18.53
2023-05-14T13:25:22.099Z,18.47
2023-05-14T13:27:51.278Z,17.97
2023-05-14T13:30:18.713Z,17.88
2023-05-14T13:32:45.868Z,17.74
2023-05-14T13:35:13.224Z,18.24
2023-05-14T13:37:40.375Z,18.72
2023-05-14T13:40:08.523Z,19.19
2023-05-14T13:42:36.718Z,19.25
2023-05-14T13:45:04.388Z,19.33
2023-05-14T13:47:31.824Z,19.40
2023-05-14T13:49:58.993Z,19.64
2023-05-14T13:52:26.668Z,18.96
2023-05-14T13:54:53.803Z,18.85
2023-05-14T13:57:22.397Z,19.56
2023-05-14T13:59:49.545Z,19.74
2023-05-14T14:02:16.704Z,19.94
2023-05-14T14:04:43.885Z,20.32
2023-05-14T14:07:11.100Z,20.54
2023-05-14T14:09:38.253Z,20.32
2023-05-14T14:12:06.153Z,20.65
2023-05-14T14:14:33.474Z,20.72
2023-05-14T14:17:00.651Z,21.16
2023-05-14T14:19:27.778Z,21.41
2023-05-14T14:21:54.932Z,21.99
2023-05-14T14:24:22.079Z,21.59
2023-05-14T14:26:49.241Z,21.66
2023-05-14T14:29:16.382Z,21.76
2023-05-14T14:31:43.818Z,21.81
2023-05-14T14:34:11.200Z,21.46
2023-05-14T14:36:38.347Z,21.11
2023-05-14T14:39:05.504Z,21.84
2023-05-14T14:41:32.655Z,21.92
2023-05-14T14:43:59.799Z,21.34
2023-05-14T14:46:27.441Z,20.85
2023-05-14T14:48:54.713Z,20.99
2023-05-14T14:51:21.872Z,22.26
2023-05-14T14:53:49.121Z,21.52
2023-05-14T14:56:16.272Z,20.82
2023-05-14T14:58:43.424Z,20.78
2023-05-14T15:01:10.806Z,20.86
2023-05-14T15:03:38.785Z,20.47
2023-05-14T15:06:06.211Z,20.81
2023-05-14T15:08:33.572Z,21.07
2023-05-14T15:11:00.921Z,20.66
2023-05-14T15:13:28.504Z,21.39
2023-05-14T15:15:55.852Z,21.13
2023-05-14T15:18:22.994Z,21.23
2023-05-14T15:20:50.250Z,21.76
2023-05-14T15:23:17.612Z,22.57
2023-05-14T15:25:44.886Z,22.54
2023-05-14T15:28:12.107Z,22.94
2023-05-14T15:30:39.260Z,22.42
2023-05-14T15:33:07.918Z,22.25
2023-05-14T15:35:36.737Z,22.63
2023-05-14T15:38:04.557Z,22.61
2023-05-14T15:40:31.753Z,22.76
2023-05-14T15:42:58.909Z,23.07
2023-05-14T15:45:26.164Z,22.95
2023-05-14T15:47:53.538Z,22.85
2023-05-14T15:50:21.177Z,22.44
2023-05-14T15:52:48.745Z,22.34
2023-05-14T15:55:15.991Z,22.20
2023-05-14T15:57:43.144Z,22.82
2023-05-14T16:00:11.305Z,23.29
2023-05-14T16:02:41.591Z,22.97
2023-05-14T16:05:09.460Z,21.96
2023-05-14T16:07:37.144Z,22.35
2023-05-14T16:10:05.111Z,22.97
2023-05-14T16:12:32.398Z,23.38
2023-05-14T16:15:00.316Z,23.26
2023-05-14T16:17:28.342Z,23.00
2023-05-14T16:19:56.439Z,23.18
2023-05-14T16:22:23.877Z,23.45
2023-05-14T16:24:51.150Z,23.81
2023-05-14T16:27:21.051Z,24.45
2023-05-14T16:29:49.625Z,25.08
2023-05-14T16:32:16.791Z,25.29
2023-05-14T16:34:49.920Z,25.28
2023-05-14T16:37:17.822Z,25.45
2023-05-14T16:39:44.989Z,25.57
2023-05-14T16:42:12.136Z,25.61
2023-05-14T16:44:39.289Z,26.21
2023-05-14T16:47:06.447Z,26.53
2023-05-14T16:49:33.690Z,26.63
2023-05-14T16:52:00.948Z,26.74
2023-05-14T16:54:28.094Z,27.11
2023-05-14T16:56:55.244Z,27.09
2023-05-14T16:59:22.393Z,27.17
2023-05-14T17:01:49.634Z,27.34
2023-05-14T17:04:18.056Z,27.96
2023-05-14T17:06:46.320Z,28.58
2023-05-14T17:09:13.456Z,28.77
2023-05-14T17:11:40.706Z,29.57
2023-05-14T17:14:07.873Z,29.26
2023-05-14T17:16:35.118Z,28.70
2023-05-14T17:19:02.329Z,29.00
2023-05-14T17:21:29.514Z,29.83
2023-05-14T17:23:56.770Z,30.25
2023-05-14T17:26:23.921Z,30.29
2023-05-14T17:28:51.074Z,30.49
2023-05-14T17:31:18.306Z,31.57
2023-05-14T17:33:45.987Z,32.12
2023-05-14T17:36:13.135Z,32.30
2023-05-14T17:38:41.417Z,32.66
2023-05-14T17:41:08.571Z,33.32
2023-05-14T17:43:37.471Z,33.53
2023-05-14T17:46:05.443Z,33.59
2023-05-14T17:48:32.500Z,33.71
2023-05-14T17:50:59.635Z,34.14
2023-05-14T17:53:26.894Z,34.61
2023-05-14T17:55:54.047Z,35.05
2023-05-14T17:58:21.617Z,35.41
2023-05-14T18:00:48.777Z,35.87
2023-05-14T18:03:16.136Z,36.66
2023-05-14T18:05:43.384Z,37.07
2023-05-14T18:08:10.529Z,37.21
2023-05-14T18:10:37.896Z,37.60
2023-05-14T18:13:05.039Z,38.14
2023-05-14T18:15:32.191Z,38.60
2023-05-14T18:17:59.376Z,39.37
2023-05-14T18:20:26.701Z,39.63
2023-05-14T18:22:53.856Z,39.82
2023-05-14T18:25:21.017Z,40.17
2023-05-14T18:27:48.159Z,40.43
2023-05-14T18:30:15.672Z,40.93
2023-05-14T18:32:44.279Z,41.05
2023-05-14T18:35:12.552Z,41.18
2023-05-14T18:37:40.082Z,41.54
2023-05-14T18:40:08.272Z,42.77
2023-05-14T18:42:35.696Z,43.55
2023-05-14T18:45:04.484Z,43.04
2023-05-14T18:47:32.487Z,43.35
2023-05-14T18:50:02.121Z,43.85
2023-05-14T18:52:29.567Z,44.38
2023-05-14T18:54:56.877Z,44.33
2023-05-14T18:57:24.132Z,44.28
2023-05-14T18:59:52.291Z,44.43
2023-05-14T19:02:19.520Z,44.57
2023-05-14T19:07:17.123Z,44.91
2023-05-14T19:09:44.380Z,45.04
2023-05-14T19:12:11.490Z,45.33
2023-05-14T19:14:38.551Z,45.61
2023-05-14T19:17:06.053Z,45.75
2023-05-14T19:19:33.193Z,46.01
2023-05-14T19:22:00.567Z,46.53
2023-05-14T19:24:27.699Z,46.92
2023-05-14T19:26:54.896Z,46.96
2023-05-14T19:29:22.099Z,47.22
2023-05-14T19:31:50.266Z,47.55
2023-05-14T19:34:17.479Z,47.82
2023-05-14T19:36:44.683Z,48.07
2023-05-14T19:39:11.834Z,47.81
2023-05-14T19:41:39.191Z,47.77
2023-05-14T19:44:06.343Z,47.86
2023-05-14T19:46:33.726Z,47.73
2023-05-14T19:49:00.966Z,47.73
2023-05-14T19:51:28.124Z,47.48
2023-05-14T19:53:55.373Z,47.71
2023-05-14T19:56:23.906Z,48.14
2023-05-14T19:58:51.918Z,48.23
2023-05-14T20:01:19.633Z,48.00
2023-05-14T20:03:47.426Z,47.92
2023-05-14T20:06:14.599Z,48.07
2023-05-14T20:08:41.859Z,48.13
2023-05-14T20:11:09.026Z,48.19
2023-05-14T20:13:37.088Z,48.68
2023-05-14T20:16:04.344Z,51.48
2023-05-14T20:18:31.737Z,53.17
2023-05-14T20:20:58.949Z,52.83
2023-05-14T20:23:26.107Z,51.40
2023-05-14T20:25:53.362Z,50.65
2023-05-14T20:28:20.510Z,50.49
2023-05-14T20:30:47.772Z,50.46
2023-05-14T20:33:15.304Z,50.24
2023-05-14T20:35:44.276Z,50.00
2023-05-14T20:38:12.954Z,50.42
2023-05-14T20:40:40.293Z,50.48
2023-05-14T20:43:07.553Z,50.44
2023-05-14T20:45:34.679Z,50.30
2023-05-14T20:48:01.979Z,50.43
2023-05-14T20:50:29.282Z,50.47
2023-05-14T20:52:56.433Z,50.81
2023-05-14T20:55:23.874Z,51.03
2023-05-14T20:57:51.249Z,51.09
2023-05-14T21:00:19.045Z,50.62
2023-05-14T21:02:46.746Z,50.32
2023-05-14T21:05:14.347Z,50.33
2023-05-14T21:07:41.498Z,50.18
2023-05-14T21:10:09.597Z,49.82
2023-05-14T21:12:36.828Z,50.31
2023-05-14T21:15:04.666Z,50.72
2023-05-14T21:17:31.795Z,50.55
2023-05-14T21:19:58.999Z,52.05
2023-05-14T21:22:27.312Z,52.72
2023-05-14T21:24:55.731Z,51.84
2023-05-14T21:27:22.921Z,51.32
2023-05-14T21:29:50.078Z,51.22
2023-05-14T21:32:17.425Z,51.54
2023-05-14T21:34:44.584Z,51.01
2023-05-14T21:37:11.834Z,51.13
2023-05-14T21:39:38.983Z,51.43
2023-05-14T21:42:06.740Z,51.36
2023-05-14T21:44:33.933Z,51.73
2023-05-14T21:47:01.060Z,51.85
2023-05-14T21:49:28.212Z,51.48
2023-05-14T21:51:55.472Z,51.67
2023-05-14T21:54:22.577Z,52.16
2023-05-14T21:56:49.770Z,51.73
2023-05-14T21:59:16.913Z,51.55
2023-05-14T22:04:14.207Z,51.88
2023-05-14T22:06:41.565Z,52.04
2023-05-14T22:09:11.060Z,52.25
2023-05-14T22:11:38.205Z,52.10
2023-05-14T22:14:05.369Z,53.58
2023-05-14T22:16:33.171Z,54.61
2023-05-14T22:19:00.838Z,54.69
2023-05-14T22:21:28.457Z,54.13
2023-05-14T22:23:55.602Z,53.96
2023-05-14T22:26:22.760Z,54.37
2023-05-14T22:28:50.117Z,54.24
2023-05-14T22:31:17.313Z,54.20
2023-05-14T22:33:44.521Z,54.13
2023-05-14T22:36:11.771Z,54.00
2023-05-14T22:38:41.376Z,53.66
2023-05-14T22:41:08.534Z,53.57
2023-05-14T22:43:35.890Z,53.88
2023-05-14T22:46:03.597Z,53.67
2023-05-14T22:48:30.823Z,53.33
2023-05-14T22:50:57.959Z,53.43
2023-05-14T22:53:25.356Z,53.89
2023-05-14T22:55:52.776Z,54.00
2023-05-14T22:58:20.339Z,53.62
2023-05-14T23:00:47.524Z,53.88
2023-05-14T23:03:14.650Z,54.02
2023-05-14T23:05:41.796Z,54.28
2023-05-14T23:08:08.944Z,54.48
2023-05-14T23:10:36.095Z,54.45
2023-05-14T23:13:03.965Z,54.48
2023-05-14T23:15:31.117Z,54.69
2023-05-14T23:17:58.471Z,54.58
2023-05-14T23:20:25.938Z,54.67
2023-05-14T23:22:54.315Z,54.62
2023-05-14T23:25:21.468Z,54.61
2023-05-14T23:27:50.290Z,54.62
2023-05-14T23:30:17.607Z,54.54
2023-05-14T23:32:44.763Z,54.55
2023-05-14T23:35:12.014Z,54.66
2023-05-14T23:37:42.855Z,54.38
2023-05-14T23:40:10.823Z,54.31
2023-05-14T23:42:38.077Z,54.41
2023-05-14T23:45:05.837Z,54.23
2023-05-14T23:47:33.030Z,53.97
2023-05-14T23:50:00.166Z,53.94
2023-05-14T23:52:27.296Z,54.53
2023-05-14T23:54:54.445Z,55.14
2023-05-14T23:57:21.599Z,55.79
2023-05-14T23:59:49.364Z,56.85
